createdAt,value
2019-05-05T00:00:44.617Z,6.03
2019-05-05T00:03:34.760Z,9.60
2019-05-05T00:06:05.329Z,5.93
2019-05-05T00:08:35.230Z,12.77
2019-05-05T00:11:15.378Z,11.90
2019-05-05T00:13:50.037Z,6.13
2019-05-05T00:16:37.173Z,4.73
2019-05-05T00:19:06.697Z,4.10
2019-05-05T00:21:36.051Z,13.30
2019-05-05T00:24:05.390Z,7.77
2019-05-05T00:26:34.994Z,8.30
2019-05-05T00:29:04.552Z,8.90
2019-05-05T00:31:34.913Z,7.73
2019-05-05T00:34:05.133Z,3.87
2019-05-05T00:36:35.335Z,8.33
2019-05-05T00:39:07.174Z,10.97
2019-05-05T00:41:36.530Z,3.57
2019-05-05T00:44:05.972Z,5.23
2019-05-05T00:46:54.905Z,6.97
2019-05-05T00:49:25.109Z,8.10
2019-05-05T00:51:54.736Z,10.53
2019-05-05T00:54:24.455Z,7.67
2019-05-05T00:56:54.477Z,5.40
2019-05-05T00:59:25.691Z,4.67
2019-05-05T01:02:10.639Z,4.43
2019-05-05T01:04:52.143Z,5.90
2019-05-05T01:07:21.495Z,11.33
2019-05-05T01:09:50.816Z,12.03
2019-05-05T01:12:21.498Z,7.33
2019-05-05T01:14:50.960Z,8.03
2019-05-05T01:17:20.295Z,4.87
2019-05-05T01:20:01.175Z,9.80
2019-05-05T01:22:20.930Z,7.43
2019-05-05T01:24:50.279Z,6.00
2019-05-05T01:27:19.701Z,5.10
2019-05-05T01:29:49.033Z,9.23
2019-05-05T01:32:24.657Z,5.07
2019-05-05T01:34:54.912Z,7.60
2019-05-05T01:37:34.860Z,6.83
2019-05-05T01:40:14.160Z,6.63
2019-05-05T01:42:44.708Z,7.33
2019-05-05T01:45:14.965Z,5.13
2019-05-05T01:47:45.267Z,5.97
2019-05-05T01:50:20.618Z,6.27
2019-05-05T01:52:45.821Z,8.50
2019-05-05T01:55:15.187Z,6.50
2019-05-05T01:57:45.145Z,4.27
2019-05-05T02:00:14.939Z,7.37
2019-05-05T02:02:44.992Z,6.07
2019-05-05T02:05:14.938Z,7.63
2019-05-05T02:07:44.853Z,5.90
2019-05-05T02:10:15.436Z,7.43
2019-05-05T02:12:44.897Z,6.37
2019-05-05T02:15:15.021Z,4.10
2019-05-05T02:17:44.758Z,5.63
2019-05-05T02:20:40.001Z,7.90
2019-05-05T02:23:10.563Z,5.90
2019-05-05T02:25:40.022Z,5.10
2019-05-05T02:28:09.434Z,10.23
2019-05-05T02:30:48.998Z,6.63
2019-05-05T02:33:18.361Z,10.90
2019-05-05T02:35:47.724Z,9.50
2019-05-05T02:38:18.455Z,7.20
2019-05-05T02:40:48.568Z,4.63
2019-05-05T02:43:19.265Z,7.03
2019-05-05T02:46:20.660Z,5.80
2019-05-05T02:48:54.879Z,7.13
2019-05-05T02:51:26.084Z,4.00
2019-05-05T02:53:57.037Z,7.27
2019-05-05T02:56:34.198Z,4.90
2019-05-05T02:59:08.049Z,3.27
2019-05-05T03:01:48.005Z,7.20
2019-05-05T03:04:18.547Z,7.07
2019-05-05T03:06:51.297Z,7.37
2019-05-05T03:09:21.747Z,7.17
2019-05-05T03:11:54.239Z,4.83
2019-05-05T03:14:24.975Z,6.17
2019-05-05T03:16:54.679Z,7.60
2019-05-05T03:19:25.532Z,7.57
2019-05-05T03:21:55.565Z,4.83
2019-05-05T03:24:24.928Z,6.43
2019-05-05T03:26:55.564Z,5.30
2019-05-05T03:29:25.626Z,5.23
2019-05-05T03:31:56.281Z,7.67
2019-05-05T03:34:25.999Z,6.10
2019-05-05T03:36:55.328Z,7.53
2019-05-05T03:39:26.546Z,5.93
2019-05-05T03:42:27.870Z,5.60
2019-05-05T03:45:07.116Z,4.90
2019-05-05T03:47:37.661Z,7.00
2019-05-05T03:50:07.488Z,4.67
2019-05-05T03:52:37.030Z,5.97
2019-05-05T03:55:07.381Z,5.13
2019-05-05T03:57:36.925Z,9.13
2019-05-05T04:00:07.508Z,5.83
2019-05-05T04:03:06.882Z,6.00
2019-05-05T04:05:44.485Z,7.73
2019-05-05T04:08:14.474Z,5.10
2019-05-05T04:10:44.636Z,5.77
2019-05-05T04:13:14.391Z,6.53
2019-05-05T04:15:45.971Z,7.00
2019-05-05T04:18:24.918Z,7.97
2019-05-05T04:20:54.221Z,9.90
2019-05-05T04:23:24.542Z,8.70
2019-05-05T04:25:54.474Z,6.00
2019-05-05T04:28:24.162Z,7.43
2019-05-05T04:30:53.710Z,6.67
2019-05-05T04:33:23.706Z,8.00
2019-05-05T04:35:54.546Z,6.07
2019-05-05T04:38:24.358Z,6.20
2019-05-05T04:40:54.234Z,8.67
2019-05-05T04:43:24.614Z,3.87
2019-05-05T04:45:54.204Z,8.93
2019-05-05T04:48:34.528Z,4.27
2019-05-05T04:51:13.868Z,8.47
2019-05-05T04:54:01.163Z,6.43
2019-05-05T04:56:30.829Z,9.03
2019-05-05T04:59:03.848Z,5.40
2019-05-05T05:01:33.562Z,3.53
2019-05-05T05:04:11.128Z,7.20
2019-05-05T05:06:47.074Z,6.20
2019-05-05T05:09:16.411Z,5.30
2019-05-05T05:11:45.718Z,5.07
2019-05-05T05:14:15.072Z,8.40
2019-05-05T05:16:44.873Z,8.30
2019-05-05T05:19:14.203Z,7.00
2019-05-05T05:21:57.660Z,5.90
2019-05-05T05:24:15.345Z,7.20
2019-05-05T05:26:44.686Z,8.47
2019-05-05T05:29:15.043Z,6.43
2019-05-05T05:31:44.522Z,8.40
2019-05-05T05:34:14.855Z,4.00
2019-05-05T05:36:44.461Z,7.80
2019-05-05T05:39:24.617Z,7.60
2019-05-05T05:41:54.679Z,5.17
2019-05-05T05:44:41.612Z,5.27
2019-05-05T05:47:18.710Z,7.47
2019-05-05T05:49:54.438Z,7.40
2019-05-05T05:52:24.354Z,6.13
2019-05-05T05:54:53.858Z,9.23
2019-05-05T05:57:24.058Z,4.63
2019-05-05T05:59:54.873Z,5.27
2019-05-05T06:02:24.363Z,6.80
2019-05-05T06:04:59.982Z,7.40
2019-05-05T06:07:29.319Z,4.67
2019-05-05T06:09:58.657Z,5.27
2019-05-05T06:12:27.974Z,5.57
2019-05-05T06:14:59.145Z,5.20
2019-05-05T06:17:28.561Z,5.07
2019-05-05T06:19:58.074Z,8.27
2019-05-05T06:22:29.343Z,7.50
2019-05-05T06:24:58.493Z,6.27
2019-05-05T06:27:27.851Z,7.13
2019-05-05T06:29:57.203Z,4.90
2019-05-05T06:32:26.546Z,5.97
2019-05-05T06:34:55.899Z,4.50
2019-05-05T06:37:25.207Z,7.23
2019-05-05T06:39:57.161Z,7.37
2019-05-05T06:42:34.316Z,6.87
2019-05-05T06:45:21.230Z,9.30
2019-05-05T06:47:50.589Z,8.00
2019-05-05T06:50:20.041Z,8.47
2019-05-05T06:52:49.399Z,7.37
2019-05-05T06:55:18.749Z,7.87
2019-05-05T06:57:48.107Z,4.63
2019-05-05T07:00:17.451Z,5.73
2019-05-05T07:02:46.765Z,6.47
2019-05-05T07:05:16.591Z,8.70
2019-05-05T07:07:45.924Z,6.63
2019-05-05T07:10:15.252Z,5.47
2019-05-05T07:12:44.612Z,11.43
2019-05-05T07:15:14.634Z,11.43
2019-05-05T07:17:45.491Z,7.70
2019-05-05T07:20:15.526Z,6.70
2019-05-05T07:22:58.045Z,6.33
2019-05-05T07:25:15.892Z,5.13
2019-05-05T07:27:45.251Z,8.53
2019-05-05T07:30:16.458Z,6.53
2019-05-05T07:32:45.776Z,8.50
2019-05-05T07:35:21.138Z,4.63
2019-05-05T07:37:50.484Z,5.30
2019-05-05T07:40:20.845Z,9.50
2019-05-05T07:42:50.181Z,7.47
2019-05-05T07:45:22.974Z,8.07
2019-05-05T07:47:50.603Z,5.53
2019-05-05T07:50:31.674Z,6.03
2019-05-05T07:52:50.973Z,7.07
2019-05-05T07:55:20.309Z,6.23
2019-05-05T07:57:49.633Z,6.03
2019-05-05T08:00:19.173Z,7.63
2019-05-05T08:02:48.482Z,8.83
2019-05-05T08:05:17.867Z,12.33
2019-05-05T08:07:47.213Z,7.13
2019-05-05T08:10:16.578Z,8.57
2019-05-05T08:12:47.129Z,7.80
2019-05-05T08:15:18.575Z,9.03
2019-05-05T08:18:19.774Z,9.10
2019-05-05T08:20:53.591Z,7.50
2019-05-05T08:23:44.700Z,5.87
2019-05-05T08:26:36.112Z,7.43
2019-05-05T08:29:23.919Z,7.40
2019-05-05T08:31:58.210Z,6.53
2019-05-05T08:34:27.548Z,7.03
2019-05-05T08:36:59.663Z,8.03
2019-05-05T08:39:27.917Z,8.33
2019-05-05T08:41:57.322Z,9.67
2019-05-05T08:44:26.648Z,9.37
2019-05-05T08:46:56.014Z,6.13
2019-05-05T08:49:25.390Z,6.30
2019-05-05T08:51:54.874Z,14.37
2019-05-05T08:54:24.357Z,11.37
2019-05-05T08:56:54.957Z,6.83
2019-05-05T08:59:24.448Z,8.07
2019-05-05T09:01:54.228Z,8.77
2019-05-05T09:04:24.661Z,6.33
2019-05-05T09:06:54.358Z,5.60
2019-05-05T09:09:24.239Z,8.80
2019-05-05T09:11:54.275Z,6.53
2019-05-05T09:14:24.058Z,5.77
2019-05-05T09:16:53.778Z,10.23
2019-05-05T09:19:23.976Z,13.87
2019-05-05T09:21:54.145Z,9.73
2019-05-05T09:24:35.141Z,6.80
2019-05-05T09:27:16.917Z,5.07
2019-05-05T09:29:46.300Z,5.97
2019-05-05T09:32:15.647Z,8.53
2019-05-05T09:34:44.995Z,7.30
2019-05-05T09:37:14.535Z,6.30
2019-05-05T09:39:43.991Z,4.17
2019-05-05T09:42:14.485Z,5.67
2019-05-05T09:44:44.117Z,7.30
2019-05-05T09:47:13.882Z,8.23
2019-05-05T09:49:44.550Z,4.53
2019-05-05T09:52:14.205Z,4.70
2019-05-05T09:54:43.981Z,7.20
2019-05-05T09:57:14.543Z,4.17
2019-05-05T09:59:44.404Z,5.67
2019-05-05T10:02:13.830Z,6.13
2019-05-05T10:04:44.063Z,6.63
2019-05-05T10:07:13.927Z,6.43
2019-05-05T10:09:43.874Z,10.97
2019-05-05T10:12:13.244Z,5.07
2019-05-05T10:14:44.725Z,4.40
2019-05-05T10:17:14.190Z,4.57
2019-05-05T10:19:44.081Z,10.93
2019-05-05T10:22:14.782Z,8.20
2019-05-05T10:24:57.368Z,3.37
2019-05-05T10:27:25.973Z,4.50
2019-05-05T10:29:55.360Z,5.60
2019-05-05T10:32:24.719Z,4.60
2019-05-05T10:35:04.481Z,4.80
2019-05-05T10:37:34.672Z,3.73
2019-05-05T10:40:04.684Z,2.47
2019-05-05T10:42:53.948Z,5.97
2019-05-05T10:45:24.478Z,4.37
2019-05-05T10:47:54.102Z,6.50
2019-05-05T10:50:24.662Z,4.83
2019-05-05T10:52:54.263Z,6.80
2019-05-05T10:55:24.008Z,3.27
2019-05-05T10:57:54.373Z,4.80
2019-05-05T11:00:47.168Z,2.50
2019-05-05T11:03:16.692Z,4.00
2019-05-05T11:05:46.258Z,1.83
2019-05-05T11:08:15.823Z,3.43
2019-05-05T11:10:45.368Z,6.47
2019-05-05T11:13:14.765Z,4.17
2019-05-05T11:15:44.564Z,4.27
2019-05-05T11:18:14.706Z,4.80
2019-05-05T11:20:44.939Z,2.57
2019-05-05T11:23:15.182Z,3.93
2019-05-05T11:25:44.749Z,2.00
2019-05-05T11:28:14.095Z,1.67
2019-05-05T11:30:44.958Z,3.10
2019-05-05T11:33:31.828Z,3.53
2019-05-05T11:36:35.357Z,3.10
2019-05-05T11:39:06.440Z,3.13
2019-05-05T11:41:35.808Z,1.97
2019-05-05T11:44:05.479Z,2.77
2019-05-05T11:46:34.816Z,3.83
2019-05-05T11:49:04.945Z,5.30
2019-05-05T11:51:34.434Z,4.40
2019-05-05T11:54:04.671Z,2.10
2019-05-05T11:56:34.110Z,2.83
2019-05-05T11:59:04.034Z,4.43
2019-05-05T12:01:33.399Z,2.23
2019-05-05T12:04:04.393Z,3.40
2019-05-05T12:06:34.058Z,3.50
2019-05-05T12:09:07.079Z,2.70
2019-05-05T12:11:36.445Z,2.97
2019-05-05T12:14:07.789Z,3.03
2019-05-05T12:16:37.177Z,5.30
2019-05-05T12:19:10.665Z,3.10
2019-05-05T12:21:40.033Z,2.80
2019-05-05T12:24:16.487Z,5.80
2019-05-05T12:26:56.651Z,3.23
2019-05-05T12:29:28.733Z,4.73
2019-05-05T12:31:58.134Z,3.83
2019-05-05T12:34:28.923Z,2.07
2019-05-05T12:36:58.274Z,3.70
2019-05-05T12:39:27.630Z,4.47
2019-05-05T12:41:56.972Z,5.00
2019-05-05T12:44:31.296Z,3.23
2019-05-05T12:47:18.285Z,5.30
2019-05-05T12:49:47.663Z,3.17
2019-05-05T12:52:17.064Z,2.67
2019-05-05T12:54:46.401Z,3.73
2019-05-05T12:57:15.777Z,3.13
2019-05-05T12:59:45.266Z,1.87
2019-05-05T13:02:14.620Z,2.80
2019-05-05T13:04:43.979Z,5.13
2019-05-05T13:07:13.729Z,5.17
2019-05-05T13:09:44.093Z,10.77
2019-05-05T13:12:15.046Z,5.27
2019-05-05T13:14:44.515Z,3.50
2019-05-05T13:17:14.252Z,3.87
2019-05-05T13:19:58.845Z,5.27
2019-05-05T13:22:59.407Z,4.40
2019-05-05T13:25:59.600Z,2.40
2019-05-05T13:28:28.915Z,4.17
2019-05-05T13:30:58.320Z,2.80
2019-05-05T13:33:27.710Z,3.10
2019-05-05T13:35:57.038Z,2.67
2019-05-05T13:38:27.427Z,5.63
2019-05-05T13:40:56.738Z,3.47
2019-05-05T13:43:26.060Z,3.80
2019-05-05T13:46:07.341Z,7.77
2019-05-05T13:48:36.677Z,2.47
2019-05-05T13:51:06.907Z,3.23
2019-05-05T13:53:36.238Z,3.20
2019-05-05T13:56:12.022Z,3.23
2019-05-05T13:58:36.816Z,3.13
2019-05-05T14:01:06.160Z,5.77
2019-05-05T14:03:35.524Z,2.87
2019-05-05T14:06:04.907Z,3.13
2019-05-05T14:08:36.393Z,3.67
2019-05-05T14:11:05.448Z,2.83
2019-05-05T14:13:34.808Z,5.03
2019-05-05T14:16:04.149Z,6.77
2019-05-05T14:18:33.507Z,3.40
2019-05-05T14:21:02.874Z,4.73
2019-05-05T14:23:34.539Z,6.10
2019-05-05T14:26:04.019Z,8.37
2019-05-05T14:28:34.020Z,3.20
2019-05-05T14:31:25.818Z,3.27
2019-05-05T14:33:57.461Z,4.13
2019-05-05T14:36:48.740Z,6.93
2019-05-05T14:39:19.133Z,5.97
2019-05-05T14:41:48.494Z,7.13
2019-05-05T14:44:17.837Z,6.57
2019-05-05T14:46:47.305Z,6.20
2019-05-05T14:49:16.652Z,5.30
2019-05-05T14:51:45.995Z,4.23
2019-05-05T14:54:15.351Z,6.33
2019-05-05T14:56:44.766Z,5.93
2019-05-05T14:59:14.383Z,8.20
2019-05-05T15:01:44.680Z,6.97
2019-05-05T15:04:15.913Z,5.10
2019-05-05T15:06:57.821Z,5.30
2019-05-05T15:09:48.821Z,6.00
2019-05-05T15:12:35.039Z,9.87
2019-05-05T15:15:07.337Z,5.30
2019-05-05T15:17:36.359Z,5.47
2019-05-05T15:20:07.111Z,7.33
2019-05-05T15:22:36.484Z,5.10
2019-05-05T15:25:06.279Z,6.67
2019-05-05T15:27:35.630Z,4.23
2019-05-05T15:30:05.608Z,5.77
2019-05-05T15:32:34.968Z,8.93
2019-05-05T15:35:04.490Z,3.73
2019-05-05T15:37:33.844Z,4.30
2019-05-05T15:40:04.023Z,5.90
2019-05-05T15:42:34.592Z,4.37
2019-05-05T15:45:04.202Z,4.00
2019-05-05T15:47:34.297Z,4.57
2019-05-05T15:50:04.428Z,10.00
2019-05-05T15:52:35.137Z,8.57
2019-05-05T15:55:05.092Z,4.80
2019-05-05T15:57:34.439Z,5.93
2019-05-05T16:00:03.906Z,6.17
2019-05-05T16:02:35.885Z,6.00
2019-05-05T16:05:04.585Z,12.63
2019-05-05T16:07:34.074Z,6.80
2019-05-05T16:10:04.103Z,5.40
2019-05-05T16:12:36.499Z,5.40
2019-05-05T16:15:27.683Z,4.43
2019-05-05T16:18:31.137Z,6.57
2019-05-05T16:21:27.933Z,5.57
2019-05-05T16:24:03.524Z,8.80
2019-05-05T16:26:32.957Z,4.33
2019-05-05T16:29:04.153Z,4.90
2019-05-05T16:31:34.227Z,5.67
2019-05-05T16:34:03.917Z,5.33
2019-05-05T16:36:33.597Z,3.63
2019-05-05T16:39:02.967Z,5.53
2019-05-05T16:41:34.024Z,4.87
2019-05-05T16:44:03.573Z,3.53
2019-05-05T16:46:35.202Z,6.07
2019-05-05T16:49:04.894Z,6.27
2019-05-05T16:51:37.634Z,8.50
2019-05-05T16:54:13.713Z,6.03
2019-05-05T16:56:44.159Z,3.87
2019-05-05T16:59:13.842Z,5.57
2019-05-05T17:01:44.746Z,6.17
2019-05-05T17:04:14.392Z,5.17
2019-05-05T17:06:45.703Z,3.63
2019-05-05T17:09:15.060Z,7.10
2019-05-05T17:12:03.460Z,3.90
2019-05-05T17:14:40.848Z,7.73
2019-05-05T17:17:23.288Z,4.80
2019-05-05T17:20:00.620Z,4.53
2019-05-05T17:22:54.481Z,4.20
2019-05-05T17:25:24.611Z,5.23
2019-05-05T17:27:54.591Z,4.10
2019-05-05T17:30:26.987Z,4.87
2019-05-05T17:32:55.426Z,4.73
2019-05-05T17:35:24.806Z,4.67
2019-05-05T17:37:55.812Z,4.60
2019-05-05T17:40:34.609Z,6.47
2019-05-05T17:43:27.839Z,4.17
2019-05-05T17:46:13.455Z,5.30
2019-05-05T17:49:14.171Z,8.43
2019-05-05T17:52:00.873Z,5.90
2019-05-05T17:54:35.967Z,5.40
2019-05-05T17:57:05.299Z,5.43
2019-05-05T17:59:34.718Z,4.50
2019-05-05T18:02:05.149Z,8.37
2019-05-05T18:04:34.541Z,5.37
2019-05-05T18:07:25.625Z,4.73
2019-05-05T18:09:57.904Z,5.03
2019-05-05T18:12:33.981Z,6.07
2019-05-05T18:15:04.483Z,7.00
2019-05-05T18:17:34.072Z,6.93
2019-05-05T18:20:04.447Z,7.30
2019-05-05T18:22:34.326Z,5.47
2019-05-05T18:25:03.843Z,5.73
2019-05-05T18:27:34.423Z,7.43
2019-05-05T18:30:04.111Z,6.70
2019-05-05T18:32:34.203Z,7.37
2019-05-05T18:35:06.634Z,6.43
2019-05-05T18:37:34.883Z,9.13
2019-05-05T18:40:04.264Z,5.80
2019-05-05T18:42:34.042Z,5.73
2019-05-05T18:45:07.631Z,7.10
2019-05-05T18:47:36.994Z,5.37
2019-05-05T18:50:07.018Z,6.07
2019-05-05T18:52:37.310Z,9.80
2019-05-05T18:55:07.217Z,6.33
2019-05-05T18:57:36.572Z,6.33
2019-05-05T19:00:08.895Z,7.37
2019-05-05T19:02:44.279Z,8.97
2019-05-05T19:05:23.781Z,6.20
2019-05-05T19:07:56.586Z,8.80
2019-05-05T19:10:26.056Z,8.27
2019-05-05T19:12:55.459Z,11.23
2019-05-05T19:15:24.891Z,9.87
2019-05-05T19:17:54.251Z,7.70
2019-05-05T19:20:35.651Z,8.20
2019-05-05T19:23:05.900Z,12.33
2019-05-05T19:25:35.879Z,9.00
2019-05-05T19:28:05.274Z,6.67
2019-05-05T19:30:36.168Z,10.63
2019-05-05T19:33:05.842Z,8.77
2019-05-05T19:35:43.963Z,9.90
2019-05-05T19:38:06.430Z,10.20
2019-05-05T19:40:35.836Z,12.03
2019-05-05T19:43:05.197Z,9.23
2019-05-05T19:45:34.640Z,8.57
2019-05-05T19:48:05.981Z,6.50
2019-05-05T19:50:44.555Z,11.43
2019-05-05T19:53:24.652Z,12.00
2019-05-05T19:55:56.373Z,7.17
2019-05-05T19:58:25.742Z,10.63
2019-05-05T20:00:57.527Z,9.30
2019-05-05T20:03:27.054Z,6.70
2019-05-05T20:05:56.459Z,7.47
2019-05-05T20:08:39.770Z,14.17
2019-05-05T20:10:56.913Z,13.87
2019-05-05T20:13:26.282Z,10.37
2019-05-05T20:16:04.364Z,9.50
2019-05-05T20:18:34.285Z,9.63
2019-05-05T20:21:07.059Z,9.37
2019-05-05T20:23:34.817Z,6.10
2019-05-05T20:26:04.258Z,10.37
2019-05-05T20:28:33.943Z,8.60
2019-05-05T20:31:03.715Z,9.20
2019-05-05T20:33:48.966Z,6.87
2019-05-05T20:36:23.683Z,8.57
2019-05-05T20:38:54.881Z,6.23
2019-05-05T20:41:24.956Z,7.37
2019-05-05T20:43:54.527Z,10.43
2019-05-05T20:46:23.936Z,7.90
2019-05-05T20:48:54.516Z,14.90
2019-05-05T20:51:24.350Z,30.33
2019-05-05T20:53:54.308Z,34.00
2019-05-05T20:56:23.753Z,47.03
2019-05-05T20:58:54.899Z,51.83
2019-05-05T21:01:24.699Z,41.70
2019-05-05T21:03:54.057Z,35.60
2019-05-05T21:06:24.563Z,41.43
2019-05-05T21:08:54.069Z,47.07
2019-05-05T21:11:24.653Z,33.17
2019-05-05T21:13:54.417Z,17.97
2019-05-05T21:16:23.850Z,17.10
2019-05-05T21:18:53.895Z,7.23
2019-05-05T21:21:26.151Z,12.93
2019-05-05T21:23:57.435Z,7.47
2019-05-05T21:26:45.689Z,6.47
2019-05-05T21:29:15.342Z,10.13
2019-05-05T21:31:44.743Z,7.73
2019-05-05T21:34:14.178Z,7.40
2019-05-05T21:36:44.824Z,11.07
2019-05-05T21:39:14.846Z,11.30
2019-05-05T21:41:44.314Z,11.27
2019-05-05T21:44:14.680Z,9.90
2019-05-05T21:46:44.223Z,9.77
2019-05-05T21:49:16.012Z,11.03
2019-05-05T21:52:09.114Z,12.03
2019-05-05T21:54:48.750Z,6.57
2019-05-05T21:57:52.288Z,11.03
2019-05-05T22:00:39.332Z,10.73
2019-05-05T22:03:09.357Z,8.67
2019-05-05T22:05:38.836Z,8.10
2019-05-05T22:08:08.183Z,8.03
2019-05-05T22:10:37.626Z,7.23
2019-05-05T22:13:06.936Z,6.83
2019-05-05T22:15:38.771Z,5.40
2019-05-05T22:18:08.094Z,8.50
2019-05-05T22:20:44.228Z,6.90
2019-05-05T22:23:14.527Z,5.10
2019-05-05T22:25:44.022Z,8.30
2019-05-05T22:28:13.399Z,6.70
2019-05-05T22:30:43.705Z,5.57
2019-05-05T22:33:13.735Z,6.40
2019-05-05T22:35:44.249Z,7.40
2019-05-05T22:38:13.835Z,7.83
2019-05-05T22:40:44.098Z,8.63
2019-05-05T22:43:14.439Z,4.40
2019-05-05T22:45:45.015Z,9.57
2019-05-05T22:48:14.547Z,3.60
2019-05-05T22:50:43.918Z,6.10
2019-05-05T22:53:13.991Z,6.17
2019-05-05T22:55:44.369Z,5.30
2019-05-05T22:58:14.366Z,8.80
2019-05-05T23:00:43.992Z,8.60
2019-05-05T23:03:20.770Z,8.00
2019-05-05T23:05:54.958Z,8.10
2019-05-05T23:08:24.434Z,5.13
2019-05-05T23:10:54.389Z,5.10
2019-05-05T23:13:23.891Z,7.40
2019-05-05T23:16:00.240Z,6.87
2019-05-05T23:18:29.601Z,6.63
2019-05-05T23:21:24.735Z,6.67
2019-05-05T23:24:24.883Z,4.50
2019-05-05T23:26:55.044Z,3.77
2019-05-05T23:29:26.475Z,6.47
2019-05-05T23:31:55.525Z,5.83
2019-05-05T23:34:24.968Z,4.23
2019-05-05T23:36:54.511Z,6.50
2019-05-05T23:39:24.284Z,6.87
2019-05-05T23:41:54.749Z,9.23
2019-05-05T23:44:24.224Z,7.77
2019-05-05T23:46:53.922Z,4.77
2019-05-05T23:49:24.211Z,5.17
2019-05-05T23:51:54.181Z,5.57
2019-05-05T23:54:24.690Z,5.60
2019-05-05T23:56:54.244Z,7.77
2019-05-05T23:59:24.047Z,9.87
